Time;durP1;ratioP1;P1;durP2;ratioP2;P2;SDS_P1;SDS_P2;PMS_P1;PMS_P2;Temp;Humidity;BMP_temperature;BMP_pressure;BME280_temperature;BME280_humidity;BME280_pressure;Samples;Min_cycle;Max_cycle;Signal;HPM_P1;HPM_P2
2022/09/25 00:00:36;;;;;;;1.88;1.25;;;13.10;99.90;;;;;;5030616;28;20041;-72
2022/09/25 00:03:02;;;;;;;0.00;0.00;;;13.10;99.90;;;;;;5029993;28;20098;-72
2022/09/25 00:05:28;;;;;;;0.00;0.00;;;13.10;99.90;;;;;;5029789;28;20133;-71
2022/09/25 00:07:55;;;;;;;0.10;0.10;;;13.00;99.90;;;;;;5042210;28;20119;-72
2022/09/25 00:10:23;;;;;;;0.10;0.10;;;12.90;99.90;;;;;;5028352;28;20151;-72
2022/09/25 00:12:49;;;;;;;0.03;0.03;;;12.80;99.90;;;;;;5030750;28;20064;-71
2022/09/25 00:15:14;;;;;;;0.10;0.10;;;12.80;99.90;;;;;;5027874;28;20044;-72
2022/09/25 00:17:40;;;;;;;0.10;0.10;;;12.80;99.90;;;;;;5051736;28;20045;-71
2022/09/25 00:20:06;;;;;;;0.08;0.08;;;12.70;99.90;;;;;;5017271;28;20180;-71
2022/09/25 00:22:32;;;;;;;0.10;0.10;;;12.70;99.90;;;;;;5029380;28;20524;-71
2022/09/25 00:24:57;;;;;;;0.00;0.00;;;12.60;99.90;;;;;;5023180;28;20041;-71
2022/09/25 00:27:23;;;;;;;0.00;0.00;;;12.60;99.90;;;;;;5010393;28;20759;-72
2022/09/25 00:29:48;;;;;;;0.10;0.10;;;12.60;99.90;;;;;;5024177;28;20121;-71
2022/09/25 00:32:14;;;;;;;0.00;0.00;;;12.60;99.90;;;;;;5017058;28;20412;-72
2022/09/25 00:34:40;;;;;;;0.10;0.10;;;12.50;99.90;;;;;;5043782;28;20037;-72
2022/09/25 00:37:06;;;;;;;0.10;0.10;;;12.50;99.90;;;;;;5031018;28;20041;-71
2022/09/25 00:39:32;;;;;;;0.05;0.05;;;12.50;99.90;;;;;;5028503;28;20037;-72
2022/09/25 00:41:58;;;;;;;0.10;0.10;;;12.40;99.90;;;;;;5037196;28;20048;-71
2022/09/25 00:44:52;;;;;;;0.00;0.00;;;12.30;99.90;;;;;;5046572;28;20041;-72
2022/09/25 00:47:26;;;;;;;0.10;0.10;;;12.20;99.90;;;;;;5041631;28;20610;-72
2022/09/25 00:49:53;;;;;;;0.00;0.00;;;12.20;99.90;;;;;;5018545;28;20053;-72
2022/09/25 00:52:19;;;;;;;3.03;0.50;;;12.20;99.90;;;;;;5032493;28;20123;-71
2022/09/25 00:54:52;;;;;;;0.00;0.00;;;12.20;99.90;;;;;;5020309;28;21847;-71
2022/09/25 00:57:20;;;;;;;0.10;0.10;;;12.20;99.90;;;;;;5018486;28;20067;-71
2022/09/25 00:59:50;;;;;;;0.10;0.10;;;12.10;99.90;;;;;;5032267;28;20179;-71
2022/09/25 01:02:23;;;;;;;0.13;0.13;;;12.10;99.90;;;;;;5010759;28;20054;-71
2022/09/25 01:04:50;;;;;;;;;;;12.10;99.90;;;;;;5029678;28;20085;-72
2022/09/25 01:07:16;;;;;;;0.10;0.10;;;12.10;99.90;;;;;;5034812;28;20412;-71
2022/09/25 01:09:43;;;;;;;0.10;0.10;;;12.00;99.90;;;;;;5028232;28;20050;-71
2022/09/25 01:12:09;;;;;;;0.00;0.00;;;12.00;99.90;;;;;;5025994;28;20473;-72
2022/09/25 01:14:36;;;;;;;1.52;0.75;;;12.00;99.90;;;;;;5023808;28;20060;-71
2022/09/25 01:17:15;;;;;;;0.10;0.10;;;11.90;99.90;;;;;;5026721;28;20477;-71
2022/09/25 01:19:50;;;;;;;0.10;0.10;;;11.90;99.90;;;;;;5026989;28;20044;-71
2022/09/25 01:22:42;;;;;;;0.00;0.00;;;11.90;99.90;;;;;;5039568;28;20046;-71
2022/09/25 01:25:34;;;;;;;0.00;0.00;;;11.90;99.90;;;;;;5029140;28;20405;-71
2022/09/25 01:28:34;;;;;;;0.10;0.10;;;11.90;99.90;;;;;;5010327;28;20165;-71
2022/09/25 01:31:14;;;;;;;0.00;0.00;;;12.00;99.90;;;;;;5010171;28;20056;-71
2022/09/25 01:33:45;;;;;;;0.10;0.10;;;11.90;99.90;;;;;;5010955;28;20137;-71
2022/09/25 01:36:22;;;;;;;0.10;0.10;;;11.90;99.90;;;;;;5016683;28;20045;-71
2022/09/25 01:39:02;;;;;;;0.10;0.10;;;12.00;99.90;;;;;;5023213;28;20187;-71
2022/09/25 01:41:28;;;;;;;0.10;0.10;;;12.00;99.90;;;;;;5006528;28;20049;-71
2022/09/25 01:44:27;;;;;;;0.10;0.10;;;12.00;99.90;;;;;;5005926;28;20092;-71
2022/09/25 01:46:58;;;;;;;0.10;0.10;;;12.00;99.90;;;;;;5006497;28;20210;-71
2022/09/25 01:49:38;;;;;;;0.10;0.10;;;12.00;99.90;;;;;;5023601;28;20099;-71
2022/09/25 01:52:11;;;;;;;0.00;0.00;;;12.00;99.90;;;;;;5025884;28;20049;-71
2022/09/25 01:54:42;;;;;;;0.00;0.00;;;12.00;99.90;;;;;;5030444;28;20049;-71
2022/09/25 01:57:28;;;;;;;0.10;0.10;;;12.10;99.90;;;;;;5041346;28;20095;-71
2022/09/25 02:00:16;;;;;;;0.10;0.10;;;12.20;99.90;;;;;;5026706;28;20065;-71
2022/09/25 02:02:45;;;;;;;0.00;0.00;;;12.10;99.90;;;;;;5029139;28;20064;-71
2022/09/25 02:05:21;;;;;;;0.00;0.00;;;12.00;99.90;;;;;;5037331;28;20037;-72
2022/09/25 02:07:53;;;;;;;0.10;0.10;;;12.00;99.90;;;;;;5050317;28;20388;-71
2022/09/25 02:10:36;;;;;;;0.10;0.10;;;12.00;99.90;;;;;;5038576;28;20136;-71
2022/09/25 02:13:11;;;;;;;1.42;1.15;;;11.90;99.90;;;;;;5031744;28;20041;-71
2022/09/25 02:15:55;;;;;;;0.10;0.10;;;11.90;99.90;;;;;;5014595;28;20057;-71
2022/09/25 02:21:20;;;;;;;0.00;0.00;;;11.80;99.90;;;;;;5038094;28;20049;-72
2022/09/25 02:23:59;;;;;;;0.00;0.00;;;11.80;99.90;;;;;;5028250;28;20062;-71
2022/09/25 02:26:32;;;;;;;0.00;0.00;;;11.70;99.90;;;;;;5036657;28;20090;-71
2022/09/25 02:28:58;;;;;;;0.10;0.10;;;11.70;99.90;;;;;;5036453;28;20073;-71
2022/09/25 02:31:42;;;;;;;1.17;0.65;;;11.70;99.90;;;;;;5013247;28;20046;-71
2022/09/25 02:34:07;;;;;;;4.38;1.77;;;11.60;99.90;;;;;;5013875;28;20100;-72
2022/09/25 02:36:33;;;;;;;0.00;0.00;;;11.60;99.90;;;;;;5041349;28;20064;-71
2022/09/25 02:39:01;;;;;;;0.13;0.13;;;11.50;99.90;;;;;;5049930;28;20056;-71
2022/09/25 02:41:51;;;;;;;0.00;0.00;;;11.50;99.90;;;;;;5034516;28;20053;-71
2022/09/25 02:44:54;;;;;;;0.10;0.10;;;11.50;99.90;;;;;;5023237;28;20140;-71
2022/09/25 02:47:38;;;;;;;0.08;0.08;;;11.50;99.90;;;;;;5024509;28;20396;-71
2022/09/25 02:50:34;;;;;;;0.10;0.10;;;11.60;99.90;;;;;;5028774;28;20052;-72
2022/09/25 02:53:05;;;;;;;0.75;0.75;;;11.70;99.90;;;;;;5023516;28;20485;-72
2022/09/25 02:55:44;;;;;;;0.10;0.10;;;11.90;99.90;;;;;;5024661;28;20084;-72
2022/09/25 02:58:26;;;;;;;0.10;0.10;;;12.00;99.90;;;;;;5029205;28;20046;-72
2022/09/25 03:00:54;;;;;;;0.03;0.03;;;12.10;99.90;;;;;;5050481;28;20057;-70
2022/09/25 03:03:24;;;;;;;0.00;0.00;;;12.10;99.90;;;;;;5033637;28;20057;-71
2022/09/25 03:05:53;;;;;;;0.00;0.00;;;12.20;99.90;;;;;;5031106;28;20037;-71
2022/09/25 03:08:38;;;;;;;0.00;0.00;;;12.30;99.90;;;;;;5051072;28;20485;-70
2022/09/25 03:11:06;;;;;;;0.08;0.08;;;12.30;99.90;;;;;;5029486;28;20049;-70
2022/09/25 03:13:33;;;;;;;0.10;0.10;;;12.30;99.90;;;;;;5029975;28;20053;-71
2022/09/25 03:16:07;;;;;;;0.10;0.10;;;12.30;99.90;;;;;;5017458;28;20096;-71
2022/09/25 03:18:32;;;;;;;0.00;0.00;;;12.30;99.90;;;;;;5032381;28;20045;-71
2022/09/25 03:20:58;;;;;;;0.00;0.00;;;12.30;99.90;;;;;;5024041;28;20448;-70
2022/09/25 03:23:24;;;;;;;0.10;0.10;;;12.40;99.90;;;;;;5032630;28;20052;-71
2022/09/25 03:25:53;;;;;;;0.10;0.10;;;12.30;99.90;;;;;;5028792;28;20037;-70
2022/09/25 03:28:19;;;;;;;0.10;0.10;;;12.30;99.90;;;;;;5032415;28;20173;-70
2022/09/25 03:30:57;;;;;;;0.00;0.00;;;12.30;99.90;;;;;;5026617;28;20464;-71
2022/09/25 03:33:23;;;;;;;1.65;1.55;;;12.30;99.90;;;;;;5038785;28;20501;-71
2022/09/25 03:36:04;;;;;;;0.00;0.00;;;12.30;99.90;;;;;;5029220;28;20135;-71
2022/09/25 03:38:30;;;;;;;0.10;0.10;;;12.20;99.90;;;;;;5030716;28;20053;-70
2022/09/25 03:40:56;;;;;;;0.10;0.10;;;12.20;99.90;;;;;;5038592;28;20420;-71
2022/09/25 03:43:21;;;;;;;0.10;0.10;;;12.10;99.90;;;;;;5051294;28;20041;-71
2022/09/25 03:45:47;;;;;;;0.00;0.00;;;12.10;99.90;;;;;;5051389;28;20477;-71
2022/09/25 03:48:12;;;;;;;0.00;0.00;;;12.00;99.90;;;;;;5029944;28;20653;-71
2022/09/25 03:50:39;;;;;;;0.10;0.10;;;12.00;99.90;;;;;;5027393;28;20049;-71
2022/09/25 03:53:04;;;;;;;0.10;0.10;;;12.00;99.90;;;;;;5032284;28;20094;-72
2022/09/25 03:55:30;;;;;;;0.10;0.10;;;12.00;99.90;;;;;;5032792;28;20041;-72
2022/09/25 03:57:56;;;;;;;0.10;0.10;;;12.00;99.90;;;;;;5029378;28;20116;-71
2022/09/25 04:00:22;;;;;;;0.10;0.10;;;12.10;99.90;;;;;;5020715;28;20049;-72
2022/09/25 04:02:49;;;;;;;0.00;0.00;;;12.00;99.90;;;;;;5036859;28;20556;-72
2022/09/25 04:05:15;;;;;;;0.10;0.10;;;12.10;99.90;;;;;;5035274;28;20389;-72
2022/09/25 04:07:41;;;;;;;0.10;0.10;;;12.10;99.90;;;;;;5027420;28;20145;-72
2022/09/25 04:10:07;;;;;;;0.10;0.10;;;12.00;99.90;;;;;;5030524;28;20128;-72
2022/09/25 04:12:32;;;;;;;0.10;0.10;;;12.00;99.90;;;;;;5026215;28;20045;-72
2022/09/25 04:14:58;;;;;;;0.15;0.15;;;12.00;99.90;;;;;;5031021;28;20060;-72
2022/09/25 04:17:24;;;;;;;0.03;0.03;;;12.10;99.90;;;;;;5027222;28;20087;-72
2022/09/25 04:19:51;;;;;;;0.00;0.00;;;12.00;99.90;;;;;;5038646;28;20051;-72
2022/09/25 04:22:17;;;;;;;0.10;0.10;;;12.00;99.90;;;;;;5025774;28;20095;-72
2022/09/25 04:24:48;;;;;;;0.10;0.10;;;12.00;99.90;;;;;;5045067;28;20409;-72
2022/09/25 04:27:20;;;;;;;0.10;0.10;;;12.00;99.90;;;;;;5027117;28;20432;-72
2022/09/25 04:29:47;;;;;;;0.05;0.05;;;12.00;99.90;;;;;;5031731;28;20045;-72
2022/09/25 04:34:58;;;;;;;0.25;0.20;;;11.90;99.90;;;;;;5049950;28;20061;-72
2022/09/25 04:37:27;;;;;;;0.10;0.10;;;11.90;99.90;;;;;;5031613;28;20045;-71
2022/09/25 04:39:57;;;;;;;0.10;0.10;;;11.90;99.90;;;;;;5030483;28;20440;-73
2022/09/25 04:42:24;;;;;;;0.10;0.10;;;11.90;99.90;;;;;;5028996;28;20461;-70
2022/09/25 04:44:51;;;;;;;0.00;0.00;;;12.00;99.90;;;;;;5028245;28;20067;-70
2022/09/25 04:47:17;;;;;;;0.10;0.10;;;12.00;99.90;;;;;;5049552;28;20477;-70
2022/09/25 04:49:42;;;;;;;0.10;0.10;;;11.90;99.90;;;;;;5022912;28;20042;-70
2022/09/25 04:52:10;;;;;;;0.00;0.00;;;12.00;99.90;;;;;;5047189;28;20052;-70
2022/09/25 04:54:36;;;;;;;0.10;0.10;;;12.00;99.90;;;;;;5047269;28;20051;-70
2022/09/25 04:57:02;;;;;;;0.10;0.10;;;11.90;99.90;;;;;;5048855;28;20044;-70
2022/09/25 04:59:28;;;;;;;0.00;0.00;;;12.00;99.90;;;;;;5046462;28;20033;-70
2022/09/25 05:01:53;;;;;;;0.10;0.10;;;12.00;99.90;;;;;;5047890;28;20080;-70
2022/09/25 05:04:19;;;;;;;0.10;0.10;;;12.00;99.90;;;;;;5046567;28;20524;-70
2022/09/25 05:06:44;;;;;;;0.20;0.20;;;11.90;99.90;;;;;;5034165;28;20122;-70
2022/09/25 05:09:10;;;;;;;0.10;0.10;;;11.90;99.90;;;;;;5047648;28;20114;-70
2022/09/25 05:11:35;;;;;;;0.10;0.10;;;11.90;99.90;;;;;;5031736;28;20103;-70
2022/09/25 05:14:01;;;;;;;0.40;0.30;;;11.90;99.90;;;;;;5034153;28;20048;-70
2022/09/25 05:16:29;;;;;;;0.10;0.10;;;11.90;99.90;;;;;;5048296;28;20049;-70
2022/09/25 05:18:55;;;;;;;0.10;0.10;;;11.80;99.90;;;;;;5047148;28;20127;-70
2022/09/25 05:21:21;;;;;;;0.10;0.10;;;11.80;99.90;;;;;;5047477;28;20143;-70
2022/09/25 05:23:46;;;;;;;0.10;0.10;;;11.70;99.90;;;;;;5046253;28;20055;-70
2022/09/25 05:26:12;;;;;;;0.10;0.10;;;11.80;99.90;;;;;;5047702;28;20072;-70
2022/09/25 05:28:38;;;;;;;0.10;0.10;;;11.80;99.90;;;;;;5032161;28;20393;-70
2022/09/25 05:31:04;;;;;;;0.10;0.10;;;11.70;99.90;;;;;;5028471;28;20080;-70
2022/09/25 05:33:31;;;;;;;0.10;0.10;;;11.80;99.90;;;;;;5021674;28;20050;-70
2022/09/25 05:36:06;;;;;;;9.23;0.98;;;11.80;99.90;;;;;;5047739;28;20040;-70
2022/09/25 05:38:33;;;;;;;0.45;0.45;;;11.70;99.90;;;;;;5047014;28;20099;-70
2022/09/25 05:41:04;;;;;;;0.10;0.10;;;11.70;99.90;;;;;;5034175;28;20053;-70
2022/09/25 05:43:31;;;;;;;0.10;0.10;;;11.60;99.90;;;;;;5023653;28;20446;-70
2022/09/25 05:45:57;;;;;;;3.83;0.50;;;11.60;99.90;;;;;;5028609;28;20753;-70
2022/09/25 05:48:23;;;;;;;0.03;0.03;;;11.60;99.90;;;;;;5026520;28;20054;-70
2022/09/25 05:50:56;;;;;;;0.10;0.10;;;11.60;99.90;;;;;;5028029;28;20128;-71
2022/09/25 05:53:22;;;;;;;0.00;0.00;;;11.60;99.90;;;;;;5045099;28;20037;-71
2022/09/25 05:55:57;;;;;;;0.10;0.10;;;11.60;99.90;;;;;;5048620;28;20053;-71
2022/09/25 05:58:23;;;;;;;0.10;0.10;;;11.50;99.90;;;;;;5037812;28;20045;-71
2022/09/25 06:00:49;;;;;;;0.03;0.03;;;11.50;99.90;;;;;;5036452;28;20474;-71
2022/09/25 06:03:16;;;;;;;0.10;0.10;;;11.50;99.90;;;;;;5043849;28;20477;-71
2022/09/25 06:05:43;;;;;;;0.10;0.10;;;11.50;99.90;;;;;;5036408;28;20595;-71
2022/09/25 06:08:08;;;;;;;0.63;0.63;;;11.40;99.90;;;;;;5026437;28;20114;-71
2022/09/25 06:10:34;;;;;;;0.28;0.28;;;11.40;99.90;;;;;;5031258;28;20033;-71
2022/09/25 06:13:01;;;;;;;0.10;0.10;;;11.30;99.90;;;;;;5034449;28;20092;-71
2022/09/25 06:15:28;;;;;;;0.10;0.10;;;11.30;99.90;;;;;;5029311;28;20560;-71
2022/09/25 06:17:55;;;;;;;1.95;1.75;;;11.30;99.90;;;;;;5031821;28;20049;-71
2022/09/25 06:20:21;;;;;;;0.22;0.22;;;11.30;99.90;;;;;;5024941;28;20060;-71
2022/09/25 06:22:54;;;;;;;0.40;0.40;;;11.30;99.90;;;;;;5052113;28;20045;-71
2022/09/25 06:25:22;;;;;;;0.83;0.83;;;11.30;99.90;;;;;;5048285;28;20167;-71
2022/09/25 06:27:51;;;;;;;0.30;0.30;;;11.30;99.90;;;;;;5050501;28;20373;-70
2022/09/25 06:30:17;;;;;;;0.20;0.20;;;11.30;99.90;;;;;;5032913;28;20401;-70
2022/09/25 06:32:43;;;;;;;0.63;0.45;;;11.20;99.90;;;;;;5051311;28;20063;-70
2022/09/25 06:35:09;;;;;;;0.10;0.10;;;11.20;99.90;;;;;;5050166;28;20044;-71
2022/09/25 06:37:34;;;;;;;0.10;0.10;;;11.30;99.90;;;;;;5047015;28;20091;-70
2022/09/25 06:40:00;;;;;;;0.10;0.10;;;11.30;99.90;;;;;;5034874;28;20064;-71
2022/09/25 06:42:25;;;;;;;0.55;0.52;;;11.30;99.90;;;;;;5025975;28;20122;-71
2022/09/25 06:44:51;;;;;;;0.52;0.52;;;11.30;99.90;;;;;;5050500;28;20056;-71
2022/09/25 06:47:17;;;;;;;0.28;0.28;;;11.30;99.90;;;;;;5048083;28;20059;-71
2022/09/25 06:49:42;;;;;;;0.10;0.10;;;11.30;99.90;;;;;;5033802;28;20485;-71
2022/09/25 06:52:08;;;;;;;0.22;0.22;;;11.30;99.90;;;;;;5030866;28;20110;-71
2022/09/25 06:54:34;;;;;;;0.00;0.00;;;11.40;99.90;;;;;;5050692;28;20106;-71
2022/09/25 06:56:59;;;;;;;0.15;0.15;;;11.40;99.90;;;;;;5051783;28;20048;-71
2022/09/25 06:59:25;;;;;;;0.10;0.10;;;11.40;99.90;;;;;;5049070;28;20508;-71
2022/09/25 07:01:51;;;;;;;0.30;0.30;;;11.40;99.90;;;;;;5029835;28;20503;-71
2022/09/25 07:04:16;;;;;;;0.15;0.15;;;11.50;99.90;;;;;;5030616;28;20088;-71
2022/09/25 07:06:42;;;;;;;0.10;0.10;;;11.50;99.90;;;;;;5027394;28;20042;-71
2022/09/25 07:09:08;;;;;;;0.25;0.20;;;11.60;99.90;;;;;;5049254;28;20099;-71
2022/09/25 07:11:34;;;;;;;0.00;0.00;;;11.60;99.90;;;;;;5051323;28;20037;-71
2022/09/25 07:14:00;;;;;;;0.28;0.28;;;11.70;99.90;;;;;;5043413;28;20042;-71
2022/09/25 07:16:28;;;;;;;0.20;0.20;;;11.70;99.90;;;;;;5037733;28;20045;-71
2022/09/25 07:18:56;;;;;;;0.10;0.10;;;11.80;99.90;;;;;;5051097;28;20072;-71
2022/09/25 07:21:28;;;;;;;0.05;0.05;;;11.80;99.90;;;;;;5048576;28;20044;-71
2022/09/25 07:23:53;;;;;;;0.10;0.10;;;11.80;99.90;;;;;;5011299;28;20502;-71
2022/09/25 07:26:22;;;;;;;0.10;0.10;;;11.90;99.90;;;;;;5009656;28;20049;-70
2022/09/25 07:28:56;;;;;;;0.10;0.10;;;11.90;99.90;;;;;;5010345;28;20386;-71
2022/09/25 07:31:32;;;;;;;0.32;0.32;;;11.90;99.90;;;;;;5044524;28;20124;-71
2022/09/25 07:34:01;;;;;;;0.10;0.10;;;12.00;99.90;;;;;;5049359;28;20678;-71
2022/09/25 07:36:27;;;;;;;0.10;0.10;;;12.00;99.90;;;;;;5049971;28;20393;-70
2022/09/25 07:38:53;;;;;;;0.10;0.10;;;12.10;99.90;;;;;;5048549;28;20047;-70
2022/09/25 07:41:21;;;;;;;0.10;0.10;;;12.20;99.90;;;;;;5034161;28;20049;-71
2022/09/25 07:43:56;;;;;;;0.10;0.10;;;12.20;99.90;;;;;;5028615;28;20436;-71
2022/09/25 07:46:26;;;;;;;0.10;0.10;;;12.30;99.90;;;;;;5029995;28;20042;-71
2022/09/25 07:48:52;;;;;;;0.10;0.10;;;12.30;99.90;;;;;;5022708;28;20204;-71
2022/09/25 07:51:20;;;;;;;0.10;0.10;;;12.30;99.90;;;;;;5046104;28;20468;-71
2022/09/25 07:53:46;;;;;;;0.10;0.10;;;12.50;99.90;;;;;;5050309;28;20041;-71
2022/09/25 07:56:12;;;;;;;0.10;0.10;;;12.50;99.90;;;;;;5049211;28;20087;-71
2022/09/25 07:58:38;;;;;;;0.45;0.45;;;12.60;99.90;;;;;;5034639;28;20132;-71
2022/09/25 08:01:06;;;;;;;0.10;0.10;;;12.80;99.90;;;;;;5032672;28;20060;-71
2022/09/25 08:03:32;;;;;;;0.10;0.10;;;12.90;99.90;;;;;;5029734;28;20041;-71
2022/09/25 08:06:08;;;;;;;0.10;0.10;;;12.90;99.90;;;;;;5033139;28;20416;-71
2022/09/25 08:08:34;;;;;;;0.10;0.10;;;13.00;99.90;;;;;;5049786;28;20606;-71
2022/09/25 08:11:01;;;;;;;1.55;0.80;;;13.00;99.90;;;;;;5049330;28;20037;-71
2022/09/25 08:13:27;;;;;;;0.00;0.00;;;13.00;99.90;;;;;;5049699;28;20147;-71
2022/09/25 08:15:53;;;;;;;0.10;0.10;;;13.00;99.90;;;;;;5034924;28;20488;-71
2022/09/25 08:18:19;;;;;;;0.10;0.10;;;13.00;99.90;;;;;;5027247;28;20049;-71
2022/09/25 08:20:44;;;;;;;0.05;0.05;;;13.10;99.90;;;;;;5024719;28;20042;-71
2022/09/25 08:23:10;;;;;;;0.00;0.00;;;13.10;99.90;;;;;;5039010;28;20052;-71
2022/09/25 08:25:35;;;;;;;2.83;1.45;;;13.10;99.90;;;;;;5038845;28;20133;-71
2022/09/25 08:28:01;;;;;;;0.10;0.10;;;13.00;99.90;;;;;;5028212;28;20481;-70
2022/09/25 08:30:28;;;;;;;0.10;0.10;;;13.10;99.90;;;;;;5028460;28;20053;-71
2022/09/25 08:32:53;;;;;;;0.10;0.10;;;13.10;99.90;;;;;;5028188;28;20700;-70
2022/09/25 08:35:19;;;;;;;0.10;0.10;;;13.30;99.90;;;;;;5018692;28;20050;-71
2022/09/25 08:37:47;;;;;;;0.00;0.00;;;13.50;99.90;;;;;;5048325;28;20032;-71
2022/09/25 08:40:25;;;;;;;0.10;0.10;;;13.60;99.90;;;;;;5042574;28;20041;-70
2022/09/25 08:42:52;;;;;;;0.10;0.10;;;14.00;99.90;;;;;;5027334;28;20091;-71
2022/09/25 08:51:25;;;;;;;0.25;0.25;;;16.90;99.90;;;;;;5025844;28;20045;-70
2022/09/25 08:53:51;;;;;;;0.17;0.17;;;17.80;99.90;;;;;;5028941;28;20081;-70
2022/09/25 08:56:17;;;;;;;0.10;0.10;;;18.40;99.90;;;;;;5028878;28;20611;-70
2022/09/25 08:58:49;;;;;;;0.00;0.00;;;18.70;99.90;;;;;;5033324;28;20037;-71
2022/09/25 09:01:23;;;;;;;0.10;0.10;;;18.30;99.90;;;;;;5043228;28;20533;-71
2022/09/25 09:04:14;;;;;;;0.10;0.10;;;17.80;99.90;;;;;;5049279;28;20052;-71
2022/09/25 09:06:41;;;;;;;0.10;0.10;;;17.10;99.90;;;;;;5025309;28;20087;-72
2022/09/25 09:09:13;;;;;;;0.10;0.10;;;16.60;99.90;;;;;;5036843;28;20051;-71
2022/09/25 09:11:43;;;;;;;0.10;0.10;;;16.10;99.90;;;;;;5047715;28;20033;-72
2022/09/25 09:14:17;;;;;;;0.10;0.10;;;15.80;99.90;;;;;;5046583;28;20067;-71
2022/09/25 09:16:45;;;;;;;;;;;15.70;99.90;;;;;;5049545;28;20037;-72
2022/09/25 09:19:12;;;;;;;0.10;0.10;;;15.90;99.90;;;;;;5047492;28;19921;-71
2022/09/25 09:21:46;;;;;;;0.10;0.10;;;16.50;99.90;;;;;;5047797;28;20041;-72
2022/09/25 09:24:42;;;;;;;0.00;0.00;;;16.20;99.90;;;;;;5047306;28;20542;-72
2022/09/25 09:27:23;;;;;;;0.10;0.10;;;16.00;99.90;;;;;;5047396;28;20527;-71
2022/09/25 09:29:53;;;;;;;0.03;0.03;;;15.70;99.90;;;;;;5038598;28;20135;-72
2022/09/25 09:32:28;;;;;;;0.00;0.00;;;15.50;99.90;;;;;;5038056;28;20485;-71
2022/09/25 09:35:06;;;;;;;0.00;0.00;;;15.40;99.90;;;;;;5046413;28;20063;-71
2022/09/25 09:37:54;;;;;;;0.00;0.00;;;15.30;99.90;;;;;;5048879;28;20043;-71
2022/09/25 09:41:11;;;;;;;3.65;1.02;;;15.20;99.90;;;;;;5035208;28;20200;-72
2022/09/25 09:43:57;;;;;;;0.10;0.10;;;15.20;99.90;;;;;;5027092;28;20153;-71
2022/09/25 09:46:45;;;;;;;0.10;0.10;;;15.30;99.90;;;;;;5027072;28;20053;-71
2022/09/25 09:49:20;;;;;;;0.10;0.10;;;15.30;99.90;;;;;;5039654;28;20090;-71
2022/09/25 09:52:15;;;;;;;0.00;0.00;;;15.40;99.90;;;;;;5052601;28;20488;-71
2022/09/25 09:54:51;;;;;;;0.10;0.10;;;15.60;99.90;;;;;;5051391;28;20049;-72
2022/09/25 09:57:29;;;;;;;0.00;0.00;;;15.70;99.90;;;;;;5050944;28;20052;-71
2022/09/25 10:00:12;;;;;;;0.10;0.10;;;15.80;99.90;;;;;;5043567;28;20136;-71
2022/09/25 10:02:45;;;;;;;0.10;0.10;;;16.20;99.90;;;;;;5031423;28;20033;-71
2022/09/25 10:05:21;;;;;;;0.03;0.03;;;16.50;99.90;;;;;;5044531;28;20045;-71
2022/09/25 10:07:49;;;;;;;0.80;0.80;;;16.80;99.90;;;;;;5032874;28;20507;-71
2022/09/25 10:10:17;;;;;;;0.10;0.10;;;17.30;99.90;;;;;;5026161;28;20120;-71
2022/09/25 10:12:50;;;;;;;0.00;0.00;;;17.50;99.90;;;;;;5043792;28;20481;-72
2022/09/25 10:15:31;;;;;;;0.00;0.00;;;17.20;99.90;;;;;;5049514;28;20524;-72
2022/09/25 10:17:59;;;;;;;0.03;0.03;;;16.70;99.90;;;;;;5051700;28;20492;-72
2022/09/25 10:20:53;;;;;;;0.10;0.10;;;16.40;99.90;;;;;;5045199;28;20041;-72
2022/09/25 10:23:38;;;;;;;0.10;0.10;;;16.40;99.90;;;;;;5019107;28;20474;-71
2022/09/25 10:26:43;;;;;;;0.00;0.00;;;16.80;99.90;;;;;;5030504;28;20337;-71
2022/09/25 10:29:08;;;;;;;0.10;0.10;;;17.30;99.90;;;;;;5047030;28;20063;-72
2022/09/25 10:31:39;;;;;;;0.00;0.00;;;17.30;99.90;;;;;;5045583;28;20041;-72
2022/09/25 10:34:16;;;;;;;0.45;0.15;;;16.90;99.90;;;;;;5040364;28;20148;-72
2022/09/25 10:36:50;;;;;;;1.30;0.90;;;16.50;99.90;;;;;;5030426;28;20057;-71
2022/09/25 10:39:41;;;;;;;0.10;0.10;;;16.20;99.90;;;;;;5022997;28;20049;-71
2022/09/25 10:42:37;;;;;;;0.00;0.00;;;16.00;99.90;;;;;;5023505;28;20059;-71
2022/09/25 10:45:21;;;;;;;0.00;0.00;;;15.80;99.90;;;;;;5033603;28;20079;-72
2022/09/25 10:50:35;;;;;;;0.00;0.00;;;15.60;99.90;;;;;;5043744;28;20057;-72
2022/09/25 10:53:03;;;;;;;0.00;0.00;;;15.50;99.90;;;;;;5049448;28;20056;-72
2022/09/25 10:55:33;;;;;;;0.00;0.00;;;15.50;99.90;;;;;;5051074;28;20045;-71
2022/09/25 10:58:23;;;;;;;0.00;0.00;;;15.50;99.90;;;;;;5043525;28;20123;-72
2022/09/25 11:00:48;;;;;;;0.45;0.45;;;15.50;99.90;;;;;;5027518;28;20137;-72
2022/09/25 11:03:21;;;;;;;0.00;0.00;;;15.60;99.90;;;;;;5029843;28;20472;-72
2022/09/25 11:06:01;;;;;;;0.00;0.00;;;15.60;99.90;;;;;;5030735;28;20530;-72
2022/09/25 11:08:31;;;;;;;0.10;0.10;;;16.20;99.90;;;;;;5043872;28;20127;-72
2022/09/25 11:10:58;;;;;;;0.10;0.10;;;16.80;99.90;;;;;;5051104;28;20037;-72
2022/09/25 11:13:27;;;;;;;0.00;0.00;;;17.30;99.90;;;;;;5050467;28;20103;-72
2022/09/25 11:15:59;;;;;;;0.10;0.10;;;17.60;99.90;;;;;;5032574;28;20037;-72
2022/09/25 11:18:44;;;;;;;0.00;0.00;;;18.00;99.90;;;;;;5035907;28;20054;-72
2022/09/25 11:21:21;;;;;;;0.00;0.00;;;18.20;99.90;;;;;;5021877;28;20045;-72
2022/09/25 11:23:52;;;;;;;0.10;0.10;;;18.10;99.90;;;;;;5039014;28;20124;-72
2022/09/25 11:26:23;;;;;;;0.30;0.20;;;18.50;99.90;;;;;;5046834;28;20476;-72
2022/09/25 11:29:00;;;;;;;2.17;1.17;;;18.80;99.90;;;;;;5048901;28;20045;-72
2022/09/25 11:31:38;;;;;;;0.20;0.20;;;19.00;99.90;;;;;;5028623;28;20041;-72
2022/09/25 11:34:41;;;;;;;0.00;0.00;;;19.30;99.90;;;;;;5026546;28;20046;-72
2022/09/25 11:37:43;;;;;;;0.28;0.28;;;19.50;99.90;;;;;;5029501;28;20052;-73
2022/09/25 11:43:01;;;;;;;0.00;0.00;;;19.90;99.90;;;;;;5022853;28;20450;-73
2022/09/25 11:45:54;;;;;;;0.00;0.00;;;20.40;99.90;;;;;;5049175;28;20051;-73
2022/09/25 11:48:50;;;;;;;0.00;0.00;;;20.60;99.90;;;;;;5049300;28;20036;-73
2022/09/25 11:51:23;;;;;;;0.00;0.00;;;19.60;99.90;;;;;;5044069;28;20052;-73
2022/09/25 11:54:28;;;;;;;0.00;0.00;;;19.00;99.90;;;;;;5039831;28;20247;-73
2022/09/25 11:57:02;;;;;;;0.05;0.05;;;18.60;99.90;;;;;;5049655;28;20044;-73
2022/09/25 11:59:37;;;;;;;0.08;0.08;;;19.30;99.90;;;;;;5046737;28;20043;-73
2022/09/25 12:02:16;;;;;;;0.32;0.32;;;19.80;99.90;;;;;;5047780;28;20284;-74
2022/09/25 12:04:58;;;;;;;0.00;0.00;;;20.30;99.90;;;;;;5046937;28;20053;-73
2022/09/25 12:07:53;;;;;;;0.00;0.00;;;20.40;99.90;;;;;;5021245;28;21000;-72
2022/09/25 12:10:44;;;;;;;0.00;0.00;;;20.60;99.90;;;;;;5036189;28;20788;-72
2022/09/25 12:13:16;;;;;;;0.00;0.00;;;20.70;99.90;;;;;;5035669;28;20055;-73
2022/09/25 12:16:01;;;;;;;1.35;0.35;;;21.00;99.90;;;;;;5029696;28;20053;-73
2022/09/25 12:19:00;;;;;;;3.17;0.85;;;21.30;99.70;;;;;;5031476;28;20061;-73
2022/09/25 12:21:37;;;;;;;0.00;0.00;;;21.50;99.20;;;;;;5028675;28;20040;-72
2022/09/25 12:24:31;;;;;;;0.00;0.00;;;21.60;99.90;;;;;;5031441;28;20037;-72
2022/09/25 12:27:04;;;;;;;0.00;0.00;;;21.40;99.90;;;;;;5024374;28;20045;-72
2022/09/25 12:30:15;;;;;;;0.03;0.03;;;21.60;99.90;;;;;;5026938;28;20449;-72
2022/09/25 12:32:40;;;;;;;0.00;0.00;;;21.60;99.10;;;;;;5025426;28;20129;-72
2022/09/25 12:35:25;;;;;;;1.77;0.40;;;22.10;99.70;;;;;;5028497;28;20120;-72
2022/09/25 12:38:04;;;;;;;0.20;0.20;;;22.20;97.90;;;;;;5028470;28;20045;-73
2022/09/25 12:40:42;;;;;;;0.52;0.52;;;22.20;96.80;;;;;;5020281;28;20083;-72
2022/09/25 12:43:26;;;;;;;0.00;0.00;;;21.70;99.70;;;;;;5010125;28;20080;-72
2022/09/25 12:46:05;;;;;;;0.00;0.00;;;21.40;99.20;;;;;;5034370;28;20076;-73
2022/09/25 12:48:36;;;;;;;0.00;0.00;;;21.90;99.40;;;;;;5030810;28;20095;-72
2022/09/25 12:51:13;;;;;;;0.17;0.17;;;22.30;97.10;;;;;;5040632;28;20056;-73
2022/09/25 12:53:44;;;;;;;0.00;0.00;;;22.30;98.80;;;;;;5031004;28;20048;-73
2022/09/25 12:56:14;;;;;;;0.00;0.00;;;21.30;99.20;;;;;;5028930;28;20061;-72
2022/09/25 12:58:56;;;;;;;0.00;0.00;;;20.60;99.90;;;;;;5037447;28;20124;-73
2022/09/25 13:01:35;;;;;;;0.00;0.00;;;20.60;99.90;;;;;;5029887;28;20061;-73
2022/09/25 13:04:10;;;;;;;0.55;0.15;;;21.30;99.90;;;;;;5026069;28;20041;-73
2022/09/25 13:06:53;;;;;;;0.00;0.00;;;21.90;99.90;;;;;;5028878;28;20060;-73
2022/09/25 13:09:38;;;;;;;0.00;0.00;;;21.60;98.70;;;;;;5028983;28;20053;-72
2022/09/25 13:12:17;;;;;;;0.00;0.00;;;20.80;99.50;;;;;;5030453;28;20053;-72
2022/09/25 13:14:53;;;;;;;0.20;0.20;;;21.20;98.80;;;;;;5035091;28;20091;-72
2022/09/25 13:17:19;;;;;;;0.00;0.00;;;21.50;99.10;;;;;;5030835;28;20429;-72
2022/09/25 13:19:44;;;;;;;0.20;0.20;;;21.80;98.70;;;;;;5028977;28;20084;-72
2022/09/25 13:22:33;;;;;;;0.00;0.00;;;21.90;97.70;;;;;;5028557;28;20081;-72
2022/09/25 13:25:12;;;;;;;0.00;0.00;;;22.10;98.20;;;;;;5030227;28;20045;-73
2022/09/25 13:27:44;;;;;;;0.00;0.00;;;22.10;97.20;;;;;;5029308;28;20508;-72
2022/09/25 13:30:55;;;;;;;0.00;0.00;;;22.00;96.10;;;;;;5019257;28;20046;-72
2022/09/25 13:33:22;;;;;;;0.00;0.00;;;22.10;97.80;;;;;;5023910;28;20050;-73